Airfield :
LOGIN :

Register | Disclaimer

   EN    FR    IT 

 










Legend :    VFR   Marginal VFR   IFR   Intensive IFR   Very Intensive IFR
Visi :
Ceiling :
>= 8 km
>= 3000ft
5 to 8 km
1000 to 3000 ft
1500m to 5 km
500 to 1000 ft
800 to 1500m
200 to 500 ft
< 800m
< 200 ft
Symbols :   Thunderstorms  Fog  Heavy snow  Heavy precipitations  Wind > 20 kt
SIGMETs :     Misc.  Thunderstorms  Icing  Turbulence  Mountain Waves  Volcanic Ashes







- Airport Elevation : 885 ft
- IATA code : BAS
- Download approach charts


LFSB - Bale-Mulhouse

CURRENT METAR :
  • 171700Z 29006KT 260V330 CAVOK 27/15 Q1018 NOSIG

EXPIRED METARs :
  • 171630Z 29006KT 260V340 CAVOK 28/16 Q1018 NOSIG
  • 171600Z 29006KT CAVOK 29/16 Q1018 NOSIG
  • 171530Z 28007KT 250V320 9999 FEW053 SCT250 29/15 Q1018 NOSIG
  • 171500Z 29007KT 250V320 9999 FEW053 29/16 Q1018 NOSIG
  • 171430Z 28007KT 250V330 9999 FEW050 29/16 Q1018 NOSIG

TAF TAF LFSB
Valid from the 17 at 12:00 until the 18 at 12:00 UTC


171100Z 1712/1812 28008KT 9999 FEW040 SCT150
TEMPO 1712/1716 FEW050TCU
BECMG 1716/1718 CAVOK
TEMPO 1810/1812 FEW040CB
Met : +33 3 89 90 31 11
No reported NOTAMs for that airfield.



MET'MAP, your aeronautical weather chart ! - Copyright ORBIFLY December 2007 - Disclaimer

ORBIFLY MET'MAP TEAM :

Programming & Development : Alexandra Zaïnal
Concept & Development : Baudouin d'Aumeries
Co-Development & Prog : Marc-Olivier Méhu
Technical & hardware support : Manuel Goepfert

Contact : metmap@orbifly.com




SOURCES & CREDITS :

   NOAA